Time;durP1;ratioP1;P1;durP2;ratioP2;P2;SDS_P1;SDS_P2;PMS_P1;PMS_P2;Temp;Humidity;BMP_temperature;BMP_pressure;BME280_temperature;BME280_humidity;BME280_pressure;Samples;Min_cycle;Max_cycle;Signal;HPM_P1;HPM_P2
2021/06/12 00:01:40;;;;;;;;;;;;;;;16.48;89.84;101687.59;5048733;28;877;-85
2021/06/12 00:04:06;;;;;;;;;;;;;;;16.42;89.84;101686.28;5049390;28;900;-85
2021/06/12 00:06:31;;;;;;;;;;;;;;;16.37;90.02;101686.56;5047799;28;852;-85
2021/06/12 00:08:57;;;;;;;;;;;;;;;16.30;90.20;101676.06;5045382;28;1890;-86
2021/06/12 00:11:22;;;;;;;;;;;;;;;16.25;90.69;101672.75;5026785;28;1315;-86
2021/06/12 00:13:48;;;;;;;;;;;;;;;16.19;90.99;101674.19;5035279;28;1971;-86
2021/06/12 00:16:13;;;;;;;;;;;;;;;16.17;91.12;101683.72;5021475;28;1313;-84
2021/06/12 00:18:38;;;;;;;;;;;;;;;16.19;91.37;101679.75;5028505;28;1198;-86
2021/06/12 00:21:04;;;;;;;;;;;;;;;16.21;91.62;101669.06;5028971;28;1499;-85
2021/06/12 00:23:29;;;;;;;;;;;;;;;16.25;91.69;101667.19;5029124;28;1051;-85
2021/06/12 00:25:55;;;;;;;;;;;;;;;16.28;91.46;101672.00;5029478;28;1034;-85
2021/06/12 00:28:20;;;;;;;;;;;;;;;16.32;91.25;101668.13;5036350;28;2127;-85
2021/06/12 00:30:46;;;;;;;;;;;;;;;16.38;91.44;101657.50;5047137;28;1979;-86
2021/06/12 00:33:11;;;;;;;;;;;;;;;16.46;91.28;101658.50;5049615;28;1086;-86
2021/06/12 00:35:36;;;;;;;;;;;;;;;16.49;91.07;101666.94;5031867;28;1310;-85
2021/06/12 00:38:02;;;;;;;;;;;;;;;16.53;91.09;101667.00;5048917;28;1189;-86
2021/06/12 00:40:27;;;;;;;;;;;;;;;16.57;91.13;101672.66;5048722;28;1066;-86
2021/06/12 00:42:53;;;;;;;;;;;;;;;16.59;91.31;101670.31;5016930;28;1900;-85
2021/06/12 00:45:24;;;;;;;;;;;;;;;16.56;91.17;101660.72;5010747;28;2044;-86
2021/06/12 00:47:52;;;;;;;;;;;;;;;16.55;91.37;101650.72;5026502;28;1225;-86
2021/06/12 00:50:21;;;;;;;;;;;;;;;16.53;91.55;101645.50;5026720;28;1939;-86
2021/06/12 00:52:46;;;;;;;;;;;;;;;16.49;91.45;101649.38;5023383;28;1202;-85
2021/06/12 00:55:14;;;;;;;;;;;;;;;16.47;91.68;101646.97;5028211;28;1364;-86
2021/06/12 00:57:41;;;;;;;;;;;;;;;16.44;91.85;101638.53;5025856;28;1878;-86
2021/06/12 01:00:18;;;;;;;;;;;;;;;16.43;91.96;101636.91;5010765;28;1749;-85
2021/06/12 01:02:44;;;;;;;;;;;;;;;16.40;92.19;101644.00;5025878;28;1362;-86
2021/06/12 01:05:11;;;;;;;;;;;;;;;16.40;92.68;101638.44;5026989;28;1347;-86
2021/06/12 01:07:37;;;;;;;;;;;;;;;16.43;92.42;101643.28;5028681;28;1194;-86
2021/06/12 01:10:05;;;;;;;;;;;;;;;16.46;92.83;101641.78;5034879;28;2028;-86
2021/06/12 01:12:53;;;;;;;;;;;;;;;16.51;92.67;101633.13;5045546;28;1881;-85
2021/06/12 01:15:19;;;;;;;;;;;;;;;16.57;92.31;101637.22;5043736;28;1841;-86
2021/06/12 01:18:02;;;;;;;;;;;;;;;16.62;92.44;101644.50;5029435;28;1198;-85
2021/06/12 01:20:58;;;;;;;;;;;;;;;16.66;92.30;101654.56;5046373;28;1206;-86
2021/06/12 01:23:42;;;;;;;;;;;;;;;16.68;91.84;101645.81;5045978;28;2031;-86
2021/06/12 01:26:33;;;;;;;;;;;;;;;16.67;91.76;101647.78;5026699;28;2016;-85
2021/06/12 01:29:38;;;;;;;;;;;;;;;16.63;91.81;101641.34;5043690;28;2031;-85
2021/06/12 01:32:06;;;;;;;;;;;;;;;16.60;91.90;101646.84;5030187;28;1284;-85
2021/06/12 01:34:33;;;;;;;;;;;;;;;16.63;91.83;101646.09;5047056;28;922;-85
2021/06/12 01:37:01;;;;;;;;;;;;;;;16.64;91.52;101650.50;5029356;28;1612;-85
2021/06/12 01:39:27;;;;;;;;;;;;;;;16.63;91.54;101637.72;5029553;28;1197;-85
2021/06/12 01:41:57;;;;;;;;;;;;;;;16.64;91.54;101642.94;5046540;28;1877;-86
2021/06/12 01:44:24;;;;;;;;;;;;;;;16.69;91.30;101636.28;5038959;28;1924;-85
2021/06/12 01:46:51;;;;;;;;;;;;;;;16.68;91.18;101634.66;5026590;28;1352;-87
2021/06/12 01:49:18;;;;;;;;;;;;;;;16.68;91.25;101632.69;5026364;28;1878;-86
2021/06/12 01:51:44;;;;;;;;;;;;;;;16.68;91.12;101638.25;5026977;28;909;-86
2021/06/12 01:54:10;;;;;;;;;;;;;;;16.65;91.00;101627.84;5027306;28;1833;-85
2021/06/12 01:56:38;;;;;;;;;;;;;;;16.66;90.97;101645.38;5007412;28;1876;-86
2021/06/12 01:59:04;;;;;;;;;;;;;;;16.67;90.93;101639.44;5017578;28;1989;-86
2021/06/12 02:01:32;;;;;;;;;;;;;;;16.68;91.05;101638.25;5046936;28;965;-86
2021/06/12 02:04:00;;;;;;;;;;;;;;;16.66;90.82;101632.25;5047512;28;1044;-86
2021/06/12 02:06:26;;;;;;;;;;;;;;;16.68;90.88;101638.25;5030070;28;1505;-85
2021/06/12 02:08:52;;;;;;;;;;;;;;;16.65;90.63;101636.19;5021158;28;1948;-85
2021/06/12 02:11:19;;;;;;;;;;;;;;;16.60;90.89;101636.50;5025552;28;988;-86
2021/06/12 02:13:47;;;;;;;;;;;;;;;16.58;90.95;101640.84;5025493;28;2051;-85
2021/06/12 02:16:13;;;;;;;;;;;;;;;16.54;91.10;101630.41;5026450;28;1200;-85
2021/06/12 02:18:44;;;;;;;;;;;;;;;16.54;91.15;101624.00;5009589;28;1201;-86
2021/06/12 02:21:10;;;;;;;;;;;;;;;16.55;91.19;101625.63;5025338;28;1190;-85
2021/06/12 02:23:35;;;;;;;;;;;;;;;16.56;91.08;101610.53;5038530;28;1964;-86
2021/06/12 02:26:01;;;;;;;;;;;;;;;16.59;91.03;101607.00;5043880;28;887;-86
2021/06/12 02:28:35;;;;;;;;;;;;;;;16.62;91.21;101625.78;5044220;28;1968;-86
2021/06/12 02:31:07;;;;;;;;;;;;;;;16.64;90.94;101622.63;5005578;28;849;-85
2021/06/12 02:33:36;;;;;;;;;;;;;;;16.60;90.82;101608.63;5008088;28;1079;-86
2021/06/12 02:36:02;;;;;;;;;;;;;;;16.58;90.93;101626.91;5005946;28;1291;-86
2021/06/12 02:38:29;;;;;;;;;;;;;;;16.58;90.95;101624.09;5006821;28;1178;-86
2021/06/12 02:40:55;;;;;;;;;;;;;;;16.53;91.03;101619.63;5005470;28;1223;-86
2021/06/12 02:43:21;;;;;;;;;;;;;;;16.50;90.96;101614.78;5021682;28;1830;-86
2021/06/12 02:45:46;;;;;;;;;;;;;;;16.48;91.00;101603.19;5007050;28;1865;-85
2021/06/12 02:48:16;;;;;;;;;;;;;;;16.47;91.11;101596.81;5020294;28;1894;-86
2021/06/12 02:50:44;;;;;;;;;;;;;;;16.48;91.16;101608.75;5021228;28;873;-86
2021/06/12 02:53:11;;;;;;;;;;;;;;;16.49;91.18;101599.22;5023442;28;843;-86
2021/06/12 02:55:40;;;;;;;;;;;;;;;16.48;91.23;101600.41;5025276;28;1334;-86
2021/06/12 02:58:08;;;;;;;;;;;;;;;16.48;91.13;101597.59;5022169;28;1909;-86
2021/06/12 03:00:35;;;;;;;;;;;;;;;16.48;91.29;101594.81;5010823;28;1924;-85
2021/06/12 03:03:01;;;;;;;;;;;;;;;16.48;91.36;101594.81;5024871;28;1153;-86
2021/06/12 03:05:29;;;;;;;;;;;;;;;16.47;91.36;101584.84;5025895;28;1016;-85
2021/06/12 03:07:56;;;;;;;;;;;;;;;16.44;91.29;101578.03;5007926;28;1202;-86
2021/06/12 03:10:24;;;;;;;;;;;;;;;16.46;91.20;101575.66;5026627;28;1939;-86
2021/06/12 03:12:50;;;;;;;;;;;;;;;16.48;91.43;101566.94;5028403;28;1288;-85
2021/06/12 03:15:17;;;;;;;;;;;;;;;16.48;91.31;101569.72;5033224;28;1928;-86
2021/06/12 03:17:45;;;;;;;;;;;;;;;16.52;91.33;101573.38;5031291;28;1174;-86
2021/06/12 03:20:13;;;;;;;;;;;;;;;16.53;91.10;101569.44;5028505;28;1212;-86
2021/06/12 03:22:40;;;;;;;;;;;;;;;16.53;91.21;101572.22;5030459;28;839;-85
2021/06/12 03:25:07;;;;;;;;;;;;;;;16.54;91.11;101571.03;5036188;28;1917;-86
2021/06/12 03:27:33;;;;;;;;;;;;;;;16.53;91.22;101573.03;5050070;28;1162;-86
2021/06/12 03:29:58;;;;;;;;;;;;;;;16.54;90.96;101573.81;5014584;28;1960;-86
2021/06/12 03:32:25;;;;;;;;;;;;;;;16.50;91.09;101572.97;5009443;28;1366;-86
2021/06/12 03:34:51;;;;;;;;;;;;;;;16.48;91.22;101572.53;5009243;28;1252;-86
2021/06/12 03:37:17;;;;;;;;;;;;;;;16.45;91.26;101565.69;5007154;28;1321;-86
2021/06/12 03:39:42;;;;;;;;;;;;;;;16.44;91.38;101566.88;5022420;28;1873;-86
2021/06/12 03:42:08;;;;;;;;;;;;;;;16.46;91.52;101580.44;5030846;28;988;-86
2021/06/12 03:44:35;;;;;;;;;;;;;;;16.47;91.50;101576.47;5029964;28;1703;-86
2021/06/12 03:47:01;;;;;;;;;;;;;;;16.45;91.36;101573.25;5030487;28;1012;-86
2021/06/12 03:49:27;;;;;;;;;;;;;;;16.44;91.54;101578.03;5028207;28;1875;-87
2021/06/12 03:51:52;;;;;;;;;;;;;;;16.43;91.64;101572.81;5028124;28;1231;-86
2021/06/12 03:54:18;;;;;;;;;;;;;;;16.46;91.76;101588.81;5026983;28;1952;-85
2021/06/12 03:56:44;;;;;;;;;;;;;;;16.50;91.69;101576.53;5031271;28;1301;-86
2021/06/12 03:59:10;;;;;;;;;;;;;;;16.57;91.44;101575.09;5030024;28;2023;-86
2021/06/12 04:01:36;;;;;;;;;;;;;;;16.59;91.35;101581.91;5031441;28;1153;-86
2021/06/12 04:04:02;;;;;;;;;;;;;;;16.64;91.08;101578.00;5031805;28;1174;-86
2021/06/12 04:06:27;;;;;;;;;;;;;;;16.64;91.26;101578.00;5030182;28;1889;-86
2021/06/12 04:08:52;;;;;;;;;;;;;;;16.64;91.01;101572.44;5030383;28;1882;-86
2021/06/12 04:11:18;;;;;;;;;;;;;;;16.64;91.00;101570.44;5049362;28;845;-86
2021/06/12 04:13:43;;;;;;;;;;;;;;;16.66;90.92;101586.81;5028561;28;1954;-86
2021/06/12 04:16:10;;;;;;;;;;;;;;;16.65;91.20;101588.81;5012710;28;1280;-87
2021/06/12 04:18:35;;;;;;;;;;;;;;;16.66;91.05;101596.00;5011033;28;1252;-86
2021/06/12 04:21:02;;;;;;;;;;;;;;;16.68;91.12;101590.03;5027888;28;1933;-86
2021/06/12 04:23:27;;;;;;;;;;;;;;;16.71;90.80;101569.78;5010781;28;1151;-86
2021/06/12 04:25:53;;;;;;;;;;;;;;;16.71;90.53;101576.19;5027541;28;1881;-85
2021/06/12 04:28:18;;;;;;;;;;;;;;;16.74;90.44;101583.00;5031561;28;1906;-85
2021/06/12 04:30:43;;;;;;;;;;;;;;;16.76;90.64;101582.63;5031781;28;1920;-85
2021/06/12 04:33:09;;;;;;;;;;;;;;;16.81;90.54;101579.56;5032815;28;1090;-85
2021/06/12 04:35:34;;;;;;;;;;;;;;;16.82;90.19;101583.94;5041902;28;1978;-85
2021/06/12 04:38:00;;;;;;;;;;;;;;;16.83;90.44;101605.88;5022065;28;2066;-85
2021/06/12 04:40:32;;;;;;;;;;;;;;;16.82;90.31;101597.88;5033243;28;872;-85
2021/06/12 04:42:57;;;;;;;;;;;;;;;16.87;90.32;101608.78;5030335;28;1342;-85
2021/06/12 04:45:23;;;;;;;;;;;;;;;16.86;89.87;101599.59;5014707;28;1083;-85
2021/06/12 04:47:49;;;;;;;;;;;;;;;16.91;90.06;101585.34;5031925;28;1333;-85
2021/06/12 04:50:15;;;;;;;;;;;;;;;16.96;89.66;101587.06;5025008;28;1926;-85
2021/06/12 04:52:41;;;;;;;;;;;;;;;17.01;89.32;101583.13;5024091;28;1799;-84
2021/06/12 04:55:09;;;;;;;;;;;;;;;17.02;89.02;101581.97;5014338;28;1208;-85
2021/06/12 04:57:34;;;;;;;;;;;;;;;17.09;88.92;101568.16;5018832;28;2136;-85
2021/06/12 05:00:00;;;;;;;;;;;;;;;17.23;88.60;101571.22;5030694;28;2088;-86
2021/06/12 05:02:25;;;;;;;;;;;;;;;17.29;88.02;101580.06;5051486;28;1444;-85
2021/06/12 05:04:50;;;;;;;;;;;;;;;17.36;88.04;101577.41;5020550;28;1773;-85
2021/06/12 05:07:16;;;;;;;;;;;;;;;17.42;87.54;101575.91;5026241;28;2067;-85
2021/06/12 05:09:41;;;;;;;;;;;;;;;17.54;87.27;101580.47;5018860;28;1929;-85
2021/06/12 05:12:07;;;;;;;;;;;;;;;17.58;86.34;101583.31;5031540;28;2056;-85
2021/06/12 05:14:32;;;;;;;;;;;;;;;17.70;86.31;101579.53;5032845;28;1020;-85
2021/06/12 05:17:01;;;;;;;;;;;;;;;17.85;85.42;101579.38;5012018;28;1650;-85
2021/06/12 05:19:27;;;;;;;;;;;;;;;17.95;84.73;101585.53;5005673;28;1395;-85
2021/06/12 05:21:52;;;;;;;;;;;;;;;17.94;84.62;101583.91;5029607;28;1233;-85
2021/06/12 05:24:17;;;;;;;;;;;;;;;17.79;84.33;101589.25;5027805;28;1786;-85
2021/06/12 05:26:43;;;;;;;;;;;;;;;17.80;84.66;101584.47;5008400;28;2075;-86
2021/06/12 05:29:08;;;;;;;;;;;;;;;17.87;83.88;101590.19;5011605;28;1925;-85
2021/06/12 05:31:34;;;;;;;;;;;;;;;18.03;83.64;101590.06;5029767;28;1794;-85
2021/06/12 05:33:59;;;;;;;;;;;;;;;18.00;82.30;101588.81;5012194;28;1882;-85
2021/06/12 05:36:25;;;;;;;;;;;;;;;18.01;82.55;101584.84;5013432;28;1504;-85
2021/06/12 05:38:51;;;;;;;;;;;;;;;18.02;82.62;101586.44;5019241;28;1899;-85
2021/06/12 05:41:17;;;;;;;;;;;;;;;17.93;82.17;101580.31;5011428;28;1008;-85
2021/06/12 05:43:42;;;;;;;;;;;;;;;17.87;82.24;101578.22;5021170;28;1805;-85
2021/06/12 05:46:08;;;;;;;;;;;;;;;17.98;81.49;101580.00;5031127;28;2068;-85
2021/06/12 05:48:33;;;;;;;;;;;;;;;18.11;82.15;101586.16;5013623;28;2182;-85
2021/06/12 05:50:59;;;;;;;;;;;;;;;18.01;81.33;101581.22;5031413;28;814;-85
2021/06/12 05:53:25;;;;;;;;;;;;;;;18.01;81.97;101593.22;5038827;28;1790;-84
2021/06/12 05:55:51;;;;;;;;;;;;;;;18.15;81.25;101578.66;5031145;28;2096;-84
2021/06/12 05:58:16;;;;;;;;;;;;;;;18.28;80.77;101584.78;5029399;28;1704;-85
2021/06/12 06:00:42;;;;;;;;;;;;;;;18.42;80.25;101581.38;5031966;28;1511;-84
2021/06/12 06:03:07;;;;;;;;;;;;;;;18.53;79.52;101573.13;5013542;28;2160;-85
2021/06/12 06:05:32;;;;;;;;;;;;;;;18.68;78.97;101558.13;5021419;28;2044;-85
2021/06/12 06:07:58;;;;;;;;;;;;;;;18.75;78.04;101563.78;5031075;28;1300;-84
2021/06/12 06:10:23;;;;;;;;;;;;;;;18.82;78.33;101562.28;5029308;28;1929;-85
2021/06/12 06:12:48;;;;;;;;;;;;;;;18.88;77.24;101561.56;5028139;28;1531;-84
2021/06/12 06:15:15;;;;;;;;;;;;;;;19.01;77.29;101566.91;5029072;28;2043;-83
2021/06/12 06:17:42;;;;;;;;;;;;;;;18.86;77.32;101555.56;5051100;28;2068;-83
2021/06/12 06:20:10;;;;;;;;;;;;;;;18.83;76.79;101547.94;5036533;28;2930;-83
2021/06/12 06:22:35;;;;;;;;;;;;;;;18.88;77.09;101553.19;5013262;28;1786;-84
2021/06/12 06:25:01;;;;;;;;;;;;;;;19.01;76.75;101567.69;5029933;28;1535;-84
2021/06/12 06:27:27;;;;;;;;;;;;;;;19.20;75.53;101566.66;5028131;28;1908;-83
2021/06/12 06:29:52;;;;;;;;;;;;;;;19.33;75.27;101573.59;5028310;28;1879;-82
2021/06/12 06:32:18;;;;;;;;;;;;;;;19.20;75.00;101566.66;5018797;28;1192;-83
2021/06/12 06:34:43;;;;;;;;;;;;;;;18.82;76.84;101571.50;5030696;28;1062;-82
2021/06/12 06:37:09;;;;;;;;;;;;;;;18.66;77.26;101577.28;5030295;28;901;-82
2021/06/12 06:39:34;;;;;;;;;;;;;;;18.57;77.66;101563.59;5029789;28;2102;-83
2021/06/12 06:41:59;;;;;;;;;;;;;;;18.41;77.75;101569.41;5029323;28;1884;-82
2021/06/12 06:44:25;;;;;;;;;;;;;;;18.29;78.87;101572.44;5029086;28;797;-83
2021/06/12 06:46:50;;;;;;;;;;;;;;;18.34;78.68;101574.06;5029997;28;1821;-83
2021/06/12 06:49:16;;;;;;;;;;;;;;;18.29;78.91;101574.41;5028810;28;1959;-81
2021/06/12 06:51:41;;;;;;;;;;;;;;;18.11;79.33;101582.56;5027867;28;1303;-82
2021/06/12 06:54:06;;;;;;;;;;;;;;;18.29;79.17;101586.41;5029384;28;1877;-82
2021/06/12 06:56:32;;;;;;;;;;;;;;;18.75;77.73;101579.78;5028770;28;1066;-82
2021/06/12 06:58:57;;;;;;;;;;;;;;;19.27;75.70;101579.94;5029882;28;1280;-82
2021/06/12 07:01:22;;;;;;;;;;;;;;;19.88;73.15;101570.06;5029667;28;1180;-82
2021/06/12 07:03:48;;;;;;;;;;;;;;;20.44;70.38;101573.53;5029792;28;1896;-83
2021/06/12 07:06:13;;;;;;;;;;;;;;;20.72;68.65;101571.28;5029793;28;1043;-82
2021/06/12 07:08:38;;;;;;;;;;;;;;;20.63;68.02;101566.81;5029799;28;2038;-82
2021/06/12 07:11:04;;;;;;;;;;;;;;;20.91;68.48;101579.34;5028899;28;849;-83
2021/06/12 07:13:29;;;;;;;;;;;;;;;21.39;67.29;101579.00;5030864;28;893;-82
2021/06/12 07:15:56;;;;;;;;;;;;;;;22.09;65.62;101577.72;5012374;28;1290;-83
2021/06/12 07:18:21;;;;;;;;;;;;;;;22.00;63.61;101580.97;5011950;28;1960;-83
2021/06/12 07:20:47;;;;;;;;;;;;;;;21.88;63.54;101568.13;5029994;28;1099;-83
2021/06/12 07:23:16;;;;;;;;;;;;;;;21.96;62.03;101563.31;5030472;28;1743;-82
2021/06/12 07:25:42;;;;;;;;;;;;;;;21.67;61.55;101566.16;5028747;28;817;-82
2021/06/12 07:28:08;;;;;;;;;;;;;;;22.20;60.80;101563.63;5010892;28;1869;-82
2021/06/12 07:30:38;;;;;;;;;;;;;;;23.01;57.55;101567.28;5027576;28;2326;-82
2021/06/12 07:33:05;;;;;;;;;;;;;;;24.20;53.86;101563.44;5027117;28;1862;-82
2021/06/12 07:35:31;;;;;;;;;;;;;;;24.44;52.87;101578.44;5027895;28;1818;-82
2021/06/12 07:37:56;;;;;;;;;;;;;;;23.40;55.08;101585.94;5027816;28;1767;-82
2021/06/12 07:40:21;;;;;;;;;;;;;;;22.27;57.76;101578.53;5028568;28;1068;-82
2021/06/12 07:42:47;;;;;;;;;;;;;;;21.38;60.31;101582.19;5029220;28;992;-83
2021/06/12 07:45:12;;;;;;;;;;;;;;;20.27;63.06;101577.88;5028465;28;830;-81
2021/06/12 07:47:38;;;;;;;;;;;;;;;20.05;64.31;101593.78;4986203;28;1940;-81
2021/06/12 07:50:04;;;;;;;;;;;;;;;20.36;64.39;101599.13;5007707;28;2343;-81
2021/06/12 07:52:29;;;;;;;;;;;;;;;20.59;63.76;101608.06;5008774;28;1850;-81
2021/06/12 07:54:54;;;;;;;;;;;;;;;20.96;60.27;101597.78;5028572;28;1070;-81
2021/06/12 07:57:20;;;;;;;;;;;;;;;21.22;58.85;101600.25;5026607;28;1343;-80
2021/06/12 07:59:45;;;;;;;;;;;;;;;21.32;58.16;101609.09;5017916;28;973;-81
2021/06/12 08:02:10;;;;;;;;;;;;;;;21.51;56.08;101593.88;5020966;28;906;-81
2021/06/12 08:04:36;;;;;;;;;;;;;;;21.42;57.32;101600.66;5014067;28;1896;-81
2021/06/12 08:07:01;;;;;;;;;;;;;;;21.55;56.81;101603.91;5031915;28;1090;-81
2021/06/12 08:09:26;;;;;;;;;;;;;;;21.57;57.55;101598.69;5031760;28;2061;-82
2021/06/12 08:11:52;;;;;;;;;;;;;;;21.42;56.98;101608.28;5031226;28;1766;-81
2021/06/12 08:14:18;;;;;;;;;;;;;;;21.46;56.92;101608.31;5023668;28;1024;-81
2021/06/12 08:16:43;;;;;;;;;;;;;;;21.93;53.94;101607.09;5030379;28;778;-81
2021/06/12 08:19:08;;;;;;;;;;;;;;;22.96;51.00;101620.41;5028046;28;1862;-81
2021/06/12 08:21:35;;;;;;;;;;;;;;;23.64;46.61;101608.69;5030173;28;875;-80
2021/06/12 08:24:00;;;;;;;;;;;;;;;23.89;46.39;101610.50;5030181;28;1912;-81
2021/06/12 08:26:26;;;;;;;;;;;;;;;23.86;45.94;101617.75;5031469;28;848;-82
2021/06/12 08:28:53;;;;;;;;;;;;;;;24.39;45.79;101621.25;5028625;28;1894;-82
2021/06/12 08:31:19;;;;;;;;;;;;;;;24.77;45.39;101619.19;5030068;28;840;-81
2021/06/12 08:33:44;;;;;;;;;;;;;;;24.65;43.92;101625.38;5036650;28;1626;-83
2021/06/12 08:36:09;;;;;;;;;;;;;;;24.54;43.79;101636.03;5029225;28;1966;-81
2021/06/12 08:38:35;;;;;;;;;;;;;;;23.79;44.77;101634.72;5030229;28;1896;-82
2021/06/12 08:41:00;;;;;;;;;;;;;;;23.47;45.04;101633.78;5030991;28;1794;-82
2021/06/12 08:43:27;;;;;;;;;;;;;;;23.28;44.25;101628.69;5029526;28;817;-81
2021/06/12 08:46:00;;;;;;;;;;;;;;;23.73;43.72;101620.28;5031718;28;1007;-81
2021/06/12 08:48:27;;;;;;;;;;;;;;;24.16;42.71;101619.88;5030238;28;1965;-82
2021/06/12 08:50:53;;;;;;;;;;;;;;;25.23;41.61;101628.22;5031146;28;1310;-81
2021/06/12 08:53:19;;;;;;;;;;;;;;;25.67;39.83;101626.31;5030523;28;1959;-85
2021/06/12 08:55:46;;;;;;;;;;;;;;;25.19;40.56;101638.75;5030559;28;2010;-82
2021/06/12 08:58:12;;;;;;;;;;;;;;;24.83;41.87;101641.28;5029895;28;1185;-82
2021/06/12 09:00:38;;;;;;;;;;;;;;;23.53;42.99;101634.13;5030633;28;1000;-82
2021/06/12 09:03:03;;;;;;;;;;;;;;;22.40;45.94;101646.38;5030017;28;1003;-82
2021/06/12 09:05:48;;;;;;;;;;;;;;;21.31;49.09;101661.63;5028698;28;884;-82
2021/06/12 09:08:14;;;;;;;;;;;;;;;20.61;50.24;101652.56;5029537;28;1949;-81
2021/06/12 09:10:53;;;;;;;;;;;;;;;20.48;51.60;101649.28;5029797;28;1016;-81
2021/06/12 09:13:52;;;;;;;;;;;;;;;21.01;50.75;101659.97;5027783;28;1927;-81
2021/06/12 09:16:28;;;;;;;;;;;;;;;23.25;45.75;101655.66;5028981;28;877;-81
2021/06/12 09:19:07;;;;;;;;;;;;;;;24.47;43.31;101658.66;5028417;28;1331;-81
2021/06/12 09:21:36;;;;;;;;;;;;;;;25.10;40.60;101655.47;5028143;28;1841;-81
2021/06/12 09:24:05;;;;;;;;;;;;;;;25.44;40.36;101666.69;5029277;28;1814;-82
2021/06/12 09:26:57;;;;;;;;;;;;;;;25.38;40.02;101668.38;5028787;28;1015;-82
2021/06/12 09:29:34;;;;;;;;;;;;;;;24.83;38.80;101670.34;5029159;28;1960;-84
2021/06/12 09:31:59;;;;;;;;;;;;;;;24.33;38.80;101668.88;5010121;28;1260;-79
2021/06/12 09:34:25;;;;;;;;;;;;;;;25.08;38.25;101681.31;5027461;28;1004;-81
2021/06/12 09:36:51;;;;;;;;;;;;;;;24.62;38.49;101691.16;5027861;28;1963;-80
2021/06/12 09:39:22;;;;;;;;;;;;;;;24.58;38.07;101690.41;5026502;28;1715;-81
2021/06/12 09:41:53;;;;;;;;;;;;;;;24.23;39.97;101697.22;5010040;28;1578;-81
2021/06/12 09:44:30;;;;;;;;;;;;;;;24.08;39.46;101700.16;5028281;28;1073;-82
2021/06/12 09:46:56;;;;;;;;;;;;;;;23.97;39.51;101705.09;5029289;28;1861;-81
2021/06/12 09:49:38;;;;;;;;;;;;;;;24.14;39.07;101709.78;5029135;28;1965;-82
2021/06/12 09:52:07;;;;;;;;;;;;;;;25.28;36.42;101715.38;5029123;28;879;-82
2021/06/12 09:54:53;;;;;;;;;;;;;;;26.30;34.97;101706.09;5029285;28;1893;-82
2021/06/12 09:57:23;;;;;;;;;;;;;;;29.20;29.77;101697.47;5028366;28;1902;-82
2021/06/12 09:59:55;;;;;;;;;;;;;;;29.15;29.56;101698.00;5027434;28;1841;-81
2021/06/12 10:02:39;;;;;;;;;;;;;;;29.92;30.16;101700.88;5028035;28;1008;-82
2021/06/12 10:05:09;;;;;;;;;;;;;;;29.19;28.76;101701.56;5028136;28;869;-82
2021/06/12 10:07:35;;;;;;;;;;;;;;;26.97;32.57;101701.13;5027051;28;1956;-82
2021/06/12 10:10:04;;;;;;;;;;;;;;;25.99;33.80;101703.41;5027831;28;2051;-82
2021/06/12 10:12:30;;;;;;;;;;;;;;;25.51;35.29;101708.19;5027971;28;885;-82
2021/06/12 10:14:57;;;;;;;;;;;;;;;27.04;32.61;101700.19;5026611;28;1887;-81
2021/06/12 10:17:23;;;;;;;;;;;;;;;26.78;32.40;101705.56;5026612;28;1294;-82
2021/06/12 10:19:53;;;;;;;;;;;;;;;26.07;32.59;101704.88;5027397;28;1885;-82
2021/06/12 10:22:19;;;;;;;;;;;;;;;25.26;34.67;101705.72;5028708;28;1105;-82
2021/06/12 10:24:46;;;;;;;;;;;;;;;25.06;34.72;101705.56;5029640;28;2000;-81
2021/06/12 10:27:14;;;;;;;;;;;;;;;24.27;36.80;101700.81;5010853;28;1233;-82
2021/06/12 10:29:41;;;;;;;;;;;;;;;25.19;35.75;101712.22;5022903;28;1906;-82
2021/06/12 10:32:08;;;;;;;;;;;;;;;27.95;31.39;101699.72;5007736;28;916;-82
2021/06/12 10:34:34;;;;;;;;;;;;;;;29.98;28.01;101691.28;5015144;28;1159;-81
2021/06/12 10:37:08;;;;;;;;;;;;;;;30.10;27.67;101698.19;5038986;28;928;-82
2021/06/12 10:39:39;;;;;;;;;;;;;;;28.05;29.13;101704.31;5028723;28;1914;-83
2021/06/12 10:42:14;;;;;;;;;;;;;;;27.99;30.29;101713.81;5027287;28;916;-81
2021/06/12 10:44:46;;;;;;;;;;;;;;;30.89;25.44;101697.41;5026809;28;801;-82
2021/06/12 10:47:12;;;;;;;;;;;;;;;31.43;24.62;101696.09;5025433;28;1197;-81
2021/06/12 10:49:39;;;;;;;;;;;;;;;30.48;24.71;101700.13;5025969;28;1974;-82
2021/06/12 10:52:05;;;;;;;;;;;;;;;31.07;24.41;101693.88;5025912;28;1896;-82
2021/06/12 10:54:37;;;;;;;;;;;;;;;29.57;25.64;101693.03;5025023;28;1940;-82
2021/06/12 10:57:11;;;;;;;;;;;;;;;29.03;26.24;101696.75;5025821;28;781;-82
2021/06/12 10:59:36;;;;;;;;;;;;;;;28.60;26.22;101698.81;5026620;28;873;-82
2021/06/12 11:02:10;;;;;;;;;;;;;;;27.17;28.54;101701.09;5026814;28;853;-82
2021/06/12 11:04:41;;;;;;;;;;;;;;;30.03;25.26;101692.75;5018917;28;1814;-83
2021/06/12 11:07:29;;;;;;;;;;;;;;;32.39;21.43;101681.88;5019706;28;1779;-82
2021/06/12 11:10:15;;;;;;;;;;;;;;;31.84;21.44;101685.47;5007880;28;1950;-82
2021/06/12 11:12:43;;;;;;;;;;;;;;;31.36;22.78;101689.91;5008671;28;1047;-82
2021/06/12 11:15:25;;;;;;;;;;;;;;;29.43;24.76;101700.00;5004969;28;1054;-83
2021/06/12 11:18:12;;;;;;;;;;;;;;;29.31;26.00;101705.66;5005904;28;1268;-82
2021/06/12 11:20:42;;;;;;;;;;;;;;;28.70;25.99;101709.03;5016521;28;1818;-82
2021/06/12 11:23:08;;;;;;;;;;;;;;;28.20;26.12;101718.13;5028165;28;1873;-81
2021/06/12 11:25:33;;;;;;;;;;;;;;;27.69;27.07;101715.75;5027276;28;980;-82
2021/06/12 11:28:20;;;;;;;;;;;;;;;27.52;27.61;101720.59;5026824;28;1197;-83
2021/06/12 11:30:45;;;;;;;;;;;;;;;28.89;25.72;101720.69;5027136;28;918;-81
2021/06/12 11:33:14;;;;;;;;;;;;;;;28.21;27.36;101722.59;5026307;28;1078;-82
2021/06/12 11:35:48;;;;;;;;;;;;;;;26.82;29.00;101730.97;5009256;28;2037;-81
2021/06/12 11:38:29;;;;;;;;;;;;;;;26.08;30.83;101749.72;5030613;28;1963;-82
2021/06/12 11:41:00;;;;;;;;;;;;;;;27.39;28.29;101737.50;5031769;28;877;-82
2021/06/12 11:43:33;;;;;;;;;;;;;;;27.11;28.89;101747.41;5030574;28;916;-82
2021/06/12 11:46:00;;;;;;;;;;;;;;;26.09;30.43;101744.84;5016074;28;992;-83
2021/06/12 11:48:26;;;;;;;;;;;;;;;25.51;31.07;101753.41;5027609;28;1977;-82
2021/06/12 11:50:52;;;;;;;;;;;;;;;25.58;31.72;101764.63;5047880;28;1007;-82
2021/06/12 11:53:20;;;;;;;;;;;;;;;26.76;31.06;101769.56;5044823;28;1912;-82
2021/06/12 11:55:46;;;;;;;;;;;;;;;27.47;29.19;101743.81;5028909;28;2794;-81
2021/06/12 11:58:12;;;;;;;;;;;;;;;30.30;25.74;101748.34;5026488;28;1185;-81
2021/06/12 12:00:46;;;;;;;;;;;;;;;28.37;26.09;101759.44;5026126;28;1008;-82
2021/06/12 12:03:16;;;;;;;;;;;;;;;29.62;24.79;101751.41;5027942;28;912;-82
2021/06/12 12:05:57;;;;;;;;;;;;;;;31.24;23.87;101755.13;5028844;28;830;-82
2021/06/12 12:08:23;;;;;;;;;;;;;;;32.77;22.20;101737.75;5036121;28;1869;-82
2021/06/12 12:10:53;;;;;;;;;;;;;;;31.35;22.28;101748.22;5047084;28;964;-82
2021/06/12 12:13:39;;;;;;;;;;;;;;;30.98;23.33;101754.50;5046150;28;785;-81
2021/06/12 12:16:21;;;;;;;;;;;;;;;27.96;26.94;101760.91;5046864;28;836;-82
2021/06/12 12:18:49;;;;;;;;;;;;;;;27.65;28.52;101760.41;5049084;28;1271;-81
2021/06/12 12:21:48;;;;;;;;;;;;;;;28.06;28.18;101757.00;5037680;28;1967;-80
2021/06/12 12:24:13;;;;;;;;;;;;;;;26.19;30.92;101768.53;5041053;28;1971;-82
2021/06/12 12:26:51;;;;;;;;;;;;;;;24.40;33.63;101775.25;5047879;28;917;-82
2021/06/12 12:29:18;;;;;;;;;;;;;;;23.72;35.28;101787.03;5047726;28;1902;-81
2021/06/12 12:31:46;;;;;;;;;;;;;;;23.70;36.53;101789.47;5029435;28;1364;-81
2021/06/12 12:34:13;;;;;;;;;;;;;;;24.80;36.03;101784.16;5044761;28;1881;-79
2021/06/12 12:36:55;;;;;;;;;;;;;;;26.91;32.45;101787.88;5048236;28;995;-81
2021/06/12 12:39:22;;;;;;;;;;;;;;;25.89;33.52;101799.31;5034568;28;2078;-83
2021/06/12 12:41:56;;;;;;;;;;;;;;;25.35;33.43;101793.63;5030696;28;924;-83
2021/06/12 12:44:23;;;;;;;;;;;;;;;27.19;30.98;101791.38;5028627;28;742;-82
2021/06/12 12:46:51;;;;;;;;;;;;;;;26.15;32.17;101787.63;5031399;28;2163;-81
2021/06/12 12:49:20;;;;;;;;;;;;;;;27.30;31.57;101786.28;5049251;28;1951;-81
2021/06/12 12:51:50;;;;;;;;;;;;;;;27.98;28.58;101789.66;5048886;28;858;-82
2021/06/12 12:54:16;;;;;;;;;;;;;;;28.48;29.37;101793.22;5033926;28;2068;-82